ADDS METAR Data INFO
IDs: Format: Raw Decoded Include TAF

Data at: 0517 UTC 19 Jan 2018

KBTM 190502Z AUTO 00000KT 3/4SM -SN BR VV008 01/M01 A2972 RMK AO2 P0001 T00061006
KBTM 190453Z AUTO 00000KT 1SM -SN BR VV009 01/M01 A2972 RMK AO2 SLP089 P0007 T00061006
KBTM 190414Z AUTO 03003KT 1SM -SN BR VV009 01/M01 A2971 RMK AO2 P0002 T00061006
KBTM 190353Z AUTO 36003KT 3/4SM -SN BR VV007 01/M01 A2972 RMK AO2 SLP088 P0010 T00061006
KBTM 190321Z AUTO 02007KT 3/4SM -SN BR VV009 01/M01 A2973 RMK AO2 P0003 T00061006
KBTM 190304Z AUTO 35007KT 1 3/4SM -SN BR OVC013 01/M01 A2974 RMK AO2 P0001 T00111006
KBTM 190300Z AUTO 34008KT 2SM -SN BR OVC015 01/M01 A2973 RMK AO2 P0000 T00111006
KBTM 190253Z AUTO 35006KT 1 3/4SM -SN BR OVC015 01/M01 A2973 RMK AO2 SLP096 P0002 60002 T00061006 55002
KBTM 190246Z AUTO 36007KT 1 1/2SM -SN BR OVC015 01/M01 A2973 RMK AO2 P0002 T00061006
KBTM 190237Z AUTO 36007KT 2SM -SN BR BKN019 OVC040 01/M01 A2973 RMK AO2 P0001 T00061006
KBTM 190223Z AUTO 01008KT 1 3/4SM -SN BR FEW005 BKN020 OVC040 01/M01 A2973 RMK AO2 P0001 T00061006
KBTM 190220Z AUTO 02007KT 2SM -SN BR FEW005 BKN039 OVC070 01/M01 A2973 RMK AO2 P0000 T00061006
KBTM 190153Z AUTO 31008KT 10SM -SN FEW003 BKN036 OVC075 01/M01 A2972 RMK AO2 UPB46E52SNB52 SLP090 P0000 T00111006
KBTM 190151Z AUTO 31009KT 10SM UP SCT003 BKN036 OVC075 01/M01 A2972 RMK AO2 UPB46 P0000
KBTM 190053Z AUTO VRB06KT 10SM OVC003 01/M01 A2973 RMK AO2 SLP103 T00061006
KBTM 190032Z AUTO 31009KT 10SM BKN004 OVC080 01/M01 A2973 RMK AO2 T00111006
KBTM 190018Z AUTO 34010KT 10SM SCT004 BKN080 01/M01 A2971 RMK AO2 T00111011
KBTM 182353Z AUTO 33011KT 10SM SCT080 02/M01 A2972 RMK AO2 SLP091 T00221011 10067 20011 56009
KBTM 182253Z AUTO 18017KT 10SM BKN080 06/M02 A2972 RMK AO2 SLP085 T00611017
KBTM 182153Z AUTO 18017KT 10SM CLR 07/M02 A2973 RMK AO2 SLP081 T00671017
KBTM 182053Z AUTO 18014G20KT 10SM CLR 07/M02 A2975 RMK AO2 SLP091 T00671022 58040
KBTM 181953Z AUTO 23008KT 10SM CLR 06/M02 A2980 RMK AO2 SLP110 T00561022
KBTM 181853Z AUTO 20009G16KT 160V220 10SM CLR 06/M03 A2984 RMK AO2 SLP130 T00561028
KBTM 181753Z AUTO 00000KT 10SM FEW060 01/M05 A2989 RMK AO2 SLP163 T00061050 10006 21072 58012
KBTM 181653Z AUTO 00000KT 10SM CLR M03/M07 A2990 RMK AO2 SLP177 T10331067
KBTM 181553Z AUTO VRB03KT 10SM CLR M02/M07 A2991 RMK AO2 SLP175 T10221067
KBTM 181453Z AUTO 33007KT 10SM CLR M04/M08 A2993 RMK AO2 SLP183 T10391083 55013
KBTM 181353Z AUTO 36006KT 10SM CLR M04/M08 A2993 RMK AO2 SLP179 T10391083
KBTM 181253Z AUTO 05003KT 10SM CLR M07/M10 A2994 RMK AO2 SLP190 T10671100
KBTM 181153Z AUTO 10SM CLR M06/M09 A2997 RMK AO2 SLP196 T10561094 11033 21089 58018
KBTM 181053Z AUTO 15003KT 10SM CLR M07/M11 A3002 RMK AO2 SLP211 T10721106
KBTM 180953Z AUTO 00000KT 10SM CLR M05/M09 A3003 RMK AO2 SLP209 T10501094
KBTM 180853Z AUTO 10003KT 10SM CLR M06/M09 A3003 RMK AO2 SLP216 T10611094 58020
KBTM 180753Z AUTO 10003KT 10SM CLR M06/M10 A3007 RMK AO2 SLP228 T10561100
KBTM 180653Z AUTO 33005KT 10SM CLR M07/M11 A3009 RMK AO2 SLP248 T10671106 410061133
KBTM 180553Z AUTO VRB03KT 10SM CLR M08/M12 A3011 RMK AO2 SLP261 T10831117 11033 21089 58007
KBTM 180453Z AUTO 00000KT 10SM CLR M08/M11 A3011 RMK AO2 SLP272 T10781111
KBTM 180353Z AUTO 00000KT 10SM CLR M07/M11 A3013 RMK AO2 SLP274 T10721106
KBTM 180253Z AUTO VRB04KT 10SM CLR M06/M10 A3013 RMK AO2 SLP275 T10611100 58010
KBTM 180153Z AUTO 19004KT 10SM CLR M06/M09 A3014 RMK AO2 SLP280 T10561094
KBTM 180053Z AUTO 00000KT 10SM CLR M05/M09 A3017 RMK AO2 SLP285 T10501089
KBTM 172353Z AUTO 14006KT 10SM CLR M03/M08 A3017 RMK AO2 SLP283 T10331078 11006 21072 58009
KBTM 172253Z AUTO 00000KT 10SM CLR M02/M07 A3019 RMK AO2 SLP287 T10171067
KBTM 172153Z AUTO 22003KT 10SM CLR M02/M07 A3019 RMK AO2 SLP283 T10221072
KBTM 172053Z AUTO 22005KT 10SM CLR M02/M07 A3020 RMK AO2 SLP291 T10221072 58029
KBTM 171953Z AUTO 33003KT 10SM CLR M02/M08 A3023 RMK AO2 SLP299 T10221078
KBTM 171853Z AUTO 15005KT 10SM CLR M06/M09 A3028 RMK AO2 SLP324 T10561089
KBTM 171753Z AUTO 10003KT 10SM CLR M07/M10 A3030 RMK AO2 SLP332 I6000 T10721100 11072 21128 50000